sensor_id;sensor_type;location;lat;lon;timestamp;temperature;humidity
21805;DHT22;11064;47.102;15.452;2023-08-17T04:01:11;15.50;99.90
21805;DHT22;11064;47.102;15.452;2023-08-17T04:03:38;15.50;99.90
21805;DHT22;11064;47.102;15.452;2023-08-17T04:06:05;15.50;99.90
21805;DHT22;11064;47.102;15.452;2023-08-17T04:08:32;15.60;99.90
21805;DHT22;11064;47.102;15.452;2023-08-17T04:10:58;15.60;99.90
21805;DHT22;11064;47.102;15.452;2023-08-17T04:13:24;15.60;99.90
21805;DHT22;11064;47.102;15.452;2023-08-17T04:15:49;15.60;99.90
21805;DHT22;11064;47.102;15.452;2023-08-17T04:18:15;15.60;99.90
21805;DHT22;11064;47.102;15.452;2023-08-17T04:20:41;15.60;99.90
21805;DHT22;11064;47.102;15.452;2023-08-17T04:23:07;15.60;99.90
21805;DHT22;11064;47.102;15.452;2023-08-17T04:25:33;15.60;99.90
21805;DHT22;11064;47.102;15.452;2023-08-17T04:27:59;15.60;99.90
21805;DHT22;11064;47.102;15.452;2023-08-17T04:30:25;15.60;99.90
21805;DHT22;11064;47.102;15.452;2023-08-17T04:32:51;15.70;99.90
21805;DHT22;11064;47.102;15.452;2023-08-17T04:35:21;15.70;99.90
21805;DHT22;11064;47.102;15.452;2023-08-17T04:37:47;15.80;99.90
21805;DHT22;11064;47.102;15.452;2023-08-17T04:40:13;15.90;99.90
21805;DHT22;11064;47.102;15.452;2023-08-17T04:42:39;16.00;99.90
21805;DHT22;11064;47.102;15.452;2023-08-17T04:45:06;16.00;99.90
21805;DHT22;11064;47.102;15.452;2023-08-17T04:47:33;16.20;99.90
21805;DHT22;11064;47.102;15.452;2023-08-17T04:49:59;16.20;99.90
21805;DHT22;11064;47.102;15.452;2023-08-17T04:52:25;16.30;99.90
21805;DHT22;11064;47.102;15.452;2023-08-17T04:54:50;16.40;99.90
21805;DHT22;11064;47.102;15.452;2023-08-17T04:57:16;16.60;99.90
21805;DHT22;11064;47.102;15.452;2023-08-17T04:59:44;16.80;99.90
21805;DHT22;11064;47.102;15.452;2023-08-17T05:02:10;16.90;99.90
21805;DHT22;11064;47.102;15.452;2023-08-17T05:04:38;16.90;99.90
21805;DHT22;11064;47.102;15.452;2023-08-17T05:07:05;17.10;99.90
21805;DHT22;11064;47.102;15.452;2023-08-17T05:09:31;17.20;99.90
21805;DHT22;11064;47.102;15.452;2023-08-17T05:11:57;17.30;99.90
21805;DHT22;11064;47.102;15.452;2023-08-17T05:14:24;17.60;99.90
21805;DHT22;11064;47.102;15.452;2023-08-17T05:16:49;17.90;99.90
21805;DHT22;11064;47.102;15.452;2023-08-17T05:19:15;18.20;99.90
21805;DHT22;11064;47.102;15.452;2023-08-17T05:21:41;18.60;99.90
21805;DHT22;11064;47.102;15.452;2023-08-17T05:24:07;19.00;99.90
21805;DHT22;11064;47.102;15.452;2023-08-17T05:26:33;19.80;99.90
21805;DHT22;11064;47.102;15.452;2023-08-17T05:28:59;19.90;99.90
21805;DHT22;11064;47.102;15.452;2023-08-17T05:31:25;19.70;99.90
21805;DHT22;11064;47.102;15.452;2023-08-17T05:33:51;19.50;99.90
21805;DHT22;11064;47.102;15.452;2023-08-17T05:36:17;19.10;99.90
21805;DHT22;11064;47.102;15.452;2023-08-17T05:38:43;18.80;99.90
21805;DHT22;11064;47.102;15.452;2023-08-17T05:41:09;18.80;99.90
21805;DHT22;11064;47.102;15.452;2023-08-17T05:43:35;18.90;99.90
21805;DHT22;11064;47.102;15.452;2023-08-17T05:46:00;18.70;99.90
21805;DHT22;11064;47.102;15.452;2023-08-17T05:48:26;18.60;99.90
21805;DHT22;11064;47.102;15.452;2023-08-17T05:50:52;18.80;99.90
21805;DHT22;11064;47.102;15.452;2023-08-17T05:53:18;19.10;99.90
21805;DHT22;11064;47.102;15.452;2023-08-17T05:55:44;19.40;99.90
21805;DHT22;11064;47.102;15.452;2023-08-17T05:58:10;19.20;99.90
21805;DHT22;11064;47.102;15.452;2023-08-17T06:00:36;19.40;99.90
21805;DHT22;11064;47.102;15.452;2023-08-17T06:03:02;19.50;99.90
21805;DHT22;11064;47.102;15.452;2023-08-17T06:05:28;19.70;99.90
21805;DHT22;11064;47.102;15.452;2023-08-17T06:07:58;19.80;99.90
21805;DHT22;11064;47.102;15.452;2023-08-17T06:10:24;19.80;99.90
21805;DHT22;11064;47.102;15.452;2023-08-17T06:12:53;19.90;99.90
21805;DHT22;11064;47.102;15.452;2023-08-17T06:15:20;20.10;99.90
21805;DHT22;11064;47.102;15.452;2023-08-17T06:17:46;20.20;99.90
21805;DHT22;11064;47.102;15.452;2023-08-17T06:20:12;20.30;99.90
21805;DHT22;11064;47.102;15.452;2023-08-17T06:22:38;20.70;99.90
21805;DHT22;11064;47.102;15.452;2023-08-17T06:25:05;20.80;99.90
21805;DHT22;11064;47.102;15.452;2023-08-17T06:27:32;21.20;99.90
21805;DHT22;11064;47.102;15.452;2023-08-17T06:29:59;21.70;99.90
21805;DHT22;11064;47.102;15.452;2023-08-17T06:32:24;21.60;99.90
21805;DHT22;11064;47.102;15.452;2023-08-17T06:34:50;21.80;99.90
21805;DHT22;11064;47.102;15.452;2023-08-17T06:37:16;21.90;99.90
21805;DHT22;11064;47.102;15.452;2023-08-17T06:39:42;22.10;99.90
21805;DHT22;11064;47.102;15.452;2023-08-17T06:42:08;22.40;99.90
21805;DHT22;11064;47.102;15.452;2023-08-17T06:44:33;22.70;99.90
21805;DHT22;11064;47.102;15.452;2023-08-17T06:46:59;22.80;99.90
21805;DHT22;11064;47.102;15.452;2023-08-17T06:49:26;23.00;99.90
21805;DHT22;11064;47.102;15.452;2023-08-17T06:51:53;23.10;99.90
21805;DHT22;11064;47.102;15.452;2023-08-17T06:54:18;23.30;99.90
21805;DHT22;11064;47.102;15.452;2023-08-17T06:56:44;23.40;99.90
21805;DHT22;11064;47.102;15.452;2023-08-17T06:59:10;23.10;99.90
21805;DHT22;11064;47.102;15.452;2023-08-17T07:01:36;23.00;99.90
21805;DHT22;11064;47.102;15.452;2023-08-17T07:04:02;22.90;99.90
21805;DHT22;11064;47.102;15.452;2023-08-17T07:06:28;22.90;99.90
21805;DHT22;11064;47.102;15.452;2023-08-17T07:08:54;22.90;99.90
21805;DHT22;11064;47.102;15.452;2023-08-17T07:11:20;22.90;99.90
21805;DHT22;11064;47.102;15.452;2023-08-17T07:13:46;22.80;99.90
21805;DHT22;11064;47.102;15.452;2023-08-17T07:16:12;23.00;99.90
21805;DHT22;11064;47.102;15.452;2023-08-17T07:18:38;23.10;99.90
21805;DHT22;11064;47.102;15.452;2023-08-17T07:21:04;23.10;99.90
21805;DHT22;11064;47.102;15.452;2023-08-17T07:23:30;22.80;99.90
21805;DHT22;11064;47.102;15.452;2023-08-17T07:25:55;22.80;99.90
21805;DHT22;11064;47.102;15.452;2023-08-17T07:28:21;23.00;99.90
21805;DHT22;11064;47.102;15.452;2023-08-17T07:30:47;23.20;99.90
21805;DHT22;11064;47.102;15.452;2023-08-17T07:33:13;23.20;99.90
21805;DHT22;11064;47.102;15.452;2023-08-17T07:35:39;23.30;99.90
21805;DHT22;11064;47.102;15.452;2023-08-17T07:38:04;23.60;99.90
21805;DHT22;11064;47.102;15.452;2023-08-17T07:40:31;23.60;99.90
21805;DHT22;11064;47.102;15.452;2023-08-17T07:42:57;23.70;99.90
21805;DHT22;11064;47.102;15.452;2023-08-17T07:45:23;23.50;99.90
21805;DHT22;11064;47.102;15.452;2023-08-17T07:47:48;23.80;99.90
21805;DHT22;11064;47.102;15.452;2023-08-17T07:50:14;24.10;99.90
21805;DHT22;11064;47.102;15.452;2023-08-17T07:52:40;23.90;99.90
21805;DHT22;11064;47.102;15.452;2023-08-17T07:55:06;24.00;99.90
21805;DHT22;11064;47.102;15.452;2023-08-17T07:57:32;23.80;99.90
21805;DHT22;11064;47.102;15.452;2023-08-17T07:59:58;23.80;99.90
21805;DHT22;11064;47.102;15.452;2023-08-17T08:02:24;24.20;99.90
21805;DHT22;11064;47.102;15.452;2023-08-17T08:04:50;24.10;99.90
21805;DHT22;11064;47.102;15.452;2023-08-17T08:07:16;24.30;99.90
21805;DHT22;11064;47.102;15.452;2023-08-17T08:09:41;24.30;99.90
21805;DHT22;11064;47.102;15.452;2023-08-17T08:12:08;24.10;99.90
21805;DHT22;11064;47.102;15.452;2023-08-17T08:14:35;24.30;99.90
21805;DHT22;11064;47.102;15.452;2023-08-17T08:17:01;24.30;99.90
21805;DHT22;11064;47.102;15.452;2023-08-17T08:19:26;24.40;99.90
21805;DHT22;11064;47.102;15.452;2023-08-17T08:21:52;24.50;99.90
21805;DHT22;11064;47.102;15.452;2023-08-17T08:24:18;24.60;99.90
21805;DHT22;11064;47.102;15.452;2023-08-17T08:26:44;24.80;99.90
21805;DHT22;11064;47.102;15.452;2023-08-17T08:29:10;24.90;99.90
21805;DHT22;11064;47.102;15.452;2023-08-17T08:31:36;24.90;99.90
21805;DHT22;11064;47.102;15.452;2023-08-17T08:34:01;24.60;99.90
21805;DHT22;11064;47.102;15.452;2023-08-17T08:36:27;24.80;99.90
21805;DHT22;11064;47.102;15.452;2023-08-17T08:38:53;24.90;99.90
21805;DHT22;11064;47.102;15.452;2023-08-17T08:41:19;25.00;99.90
21805;DHT22;11064;47.102;15.452;2023-08-17T08:43:45;25.00;99.90
21805;DHT22;11064;47.102;15.452;2023-08-17T08:46:11;24.90;99.90
21805;DHT22;11064;47.102;15.452;2023-08-17T08:48:39;24.80;99.90
21805;DHT22;11064;47.102;15.452;2023-08-17T08:51:08;24.90;99.90
21805;DHT22;11064;47.102;15.452;2023-08-17T08:53:46;25.00;99.90
21805;DHT22;11064;47.102;15.452;2023-08-17T08:56:19;25.20;99.90
21805;DHT22;11064;47.102;15.452;2023-08-17T08:58:46;25.20;99.90
21805;DHT22;11064;47.102;15.452;2023-08-17T09:01:13;25.40;99.90
21805;DHT22;11064;47.102;15.452;2023-08-17T09:03:39;25.80;99.90
21805;DHT22;11064;47.102;15.452;2023-08-17T09:06:07;26.00;99.90
21805;DHT22;11064;47.102;15.452;2023-08-17T09:08:34;26.00;99.90
21805;DHT22;11064;47.102;15.452;2023-08-17T09:10:59;26.20;99.90
21805;DHT22;11064;47.102;15.452;2023-08-17T09:13:26;26.20;99.90
21805;DHT22;11064;47.102;15.452;2023-08-17T09:15:52;25.80;99.90
21805;DHT22;11064;47.102;15.452;2023-08-17T09:18:20;25.70;99.90
21805;DHT22;11064;47.102;15.452;2023-08-17T09:20:47;26.00;99.90
21805;DHT22;11064;47.102;15.452;2023-08-17T09:23:20;26.10;99.90
21805;DHT22;11064;47.102;15.452;2023-08-17T09:25:48;26.00;99.90
21805;DHT22;11064;47.102;15.452;2023-08-17T09:28:17;26.10;99.90
21805;DHT22;11064;47.102;15.452;2023-08-17T09:31:02;25.80;99.90
21805;DHT22;11064;47.102;15.452;2023-08-17T09:33:31;25.50;99.90
21805;DHT22;11064;47.102;15.452;2023-08-17T09:35:59;25.50;99.90
21805;DHT22;11064;47.102;15.452;2023-08-17T09:38:25;25.60;99.90
21805;DHT22;11064;47.102;15.452;2023-08-17T09:40:53;25.40;99.90
21805;DHT22;11064;47.102;15.452;2023-08-17T09:43:19;25.50;99.90
21805;DHT22;11064;47.102;15.452;2023-08-17T09:45:48;25.60;99.90
21805;DHT22;11064;47.102;15.452;2023-08-17T09:48:16;26.10;99.90
21805;DHT22;11064;47.102;15.452;2023-08-17T09:50:47;26.20;99.90
21805;DHT22;11064;47.102;15.452;2023-08-17T09:53:14;26.60;99.90
21805;DHT22;11064;47.102;15.452;2023-08-17T09:55:42;27.30;99.90
21805;DHT22;11064;47.102;15.452;2023-08-17T09:58:09;27.80;99.90
21805;DHT22;11064;47.102;15.452;2023-08-17T10:00:36;28.00;99.90
21805;DHT22;11064;47.102;15.452;2023-08-17T10:03:04;27.50;99.90
21805;DHT22;11064;47.102;15.452;2023-08-17T10:05:34;27.70;99.90
21805;DHT22;11064;47.102;15.452;2023-08-17T10:08:02;27.80;99.90
21805;DHT22;11064;47.102;15.452;2023-08-17T10:10:30;28.10;99.90
21805;DHT22;11064;47.102;15.452;2023-08-17T10:13:25;28.40;99.90
21805;DHT22;11064;47.102;15.452;2023-08-17T10:16:20;28.70;99.90
21805;DHT22;11064;47.102;15.452;2023-08-17T10:21:28;28.90;96.70
21805;DHT22;11064;47.102;15.452;2023-08-17T10:23:57;29.10;96.80
21805;DHT22;11064;47.102;15.452;2023-08-17T10:26:24;29.20;97.80
21805;DHT22;11064;47.102;15.452;2023-08-17T10:28:53;29.80;97.40
21805;DHT22;11064;47.102;15.452;2023-08-17T10:31:20;30.20;96.00
21805;DHT22;11064;47.102;15.452;2023-08-17T10:33:47;30.60;95.20
21805;DHT22;11064;47.102;15.452;2023-08-17T10:36:14;30.10;93.90
21805;DHT22;11064;47.102;15.452;2023-08-17T10:38:41;30.00;92.50
21805;DHT22;11064;47.102;15.452;2023-08-17T10:41:14;29.70;93.40
21805;DHT22;11064;47.102;15.452;2023-08-17T10:43:57;29.20;95.70
21805;DHT22;11064;47.102;15.452;2023-08-17T10:46:37;28.60;95.10
21805;DHT22;11064;47.102;15.452;2023-08-17T10:49:06;28.30;96.30
21805;DHT22;11064;47.102;15.452;2023-08-17T10:51:33;28.20;95.90
21805;DHT22;11064;47.102;15.452;2023-08-17T10:54:02;28.30;96.50
21805;DHT22;11064;47.102;15.452;2023-08-17T10:56:29;28.30;95.30
21805;DHT22;11064;47.102;15.452;2023-08-17T10:59:24;28.40;96.00
21805;DHT22;11064;47.102;15.452;2023-08-17T11:01:51;28.40;96.40
21805;DHT22;11064;47.102;15.452;2023-08-17T11:04:17;28.70;96.00
21805;DHT22;11064;47.102;15.452;2023-08-17T11:06:45;28.60;94.40
21805;DHT22;11064;47.102;15.452;2023-08-17T11:09:11;28.80;93.60
21805;DHT22;11064;47.102;15.452;2023-08-17T11:11:38;28.80;93.90
21805;DHT22;11064;47.102;15.452;2023-08-17T11:14:04;28.70;93.50
21805;DHT22;11064;47.102;15.452;2023-08-17T11:16:30;28.80;94.30
21805;DHT22;11064;47.102;15.452;2023-08-17T11:18:56;29.00;95.00
21805;DHT22;11064;47.102;15.452;2023-08-17T11:21:24;28.50;93.10
21805;DHT22;11064;47.102;15.452;2023-08-17T11:23:50;28.90;93.40
21805;DHT22;11064;47.102;15.452;2023-08-17T11:26:17;29.00;94.10
21805;DHT22;11064;47.102;15.452;2023-08-17T11:28:44;29.20;92.60
21805;DHT22;11064;47.102;15.452;2023-08-17T11:31:13;29.00;93.70
21805;DHT22;11064;47.102;15.452;2023-08-17T11:33:40;28.90;94.20
21805;DHT22;11064;47.102;15.452;2023-08-17T11:36:09;28.40;92.40
21805;DHT22;11064;47.102;15.452;2023-08-17T11:38:37;28.40;93.90
21805;DHT22;11064;47.102;15.452;2023-08-17T11:41:04;28.20;94.50
21805;DHT22;11064;47.102;15.452;2023-08-17T11:43:32;27.90;95.80
21805;DHT22;11064;47.102;15.452;2023-08-17T11:46:00;27.80;95.70
21805;DHT22;11064;47.102;15.452;2023-08-17T11:48:27;27.90;95.30
21805;DHT22;11064;47.102;15.452;2023-08-17T11:50:53;27.70;92.10
21805;DHT22;11064;47.102;15.452;2023-08-17T11:53:20;27.30;93.40
21805;DHT22;11064;47.102;15.452;2023-08-17T11:55:47;27.30;94.00
21805;DHT22;11064;47.102;15.452;2023-08-17T11:58:13;27.70;96.40
21805;DHT22;11064;47.102;15.452;2023-08-17T12:00:43;28.20;95.60
21805;DHT22;11064;47.102;15.452;2023-08-17T12:03:15;28.40;92.90
21805;DHT22;11064;47.102;15.452;2023-08-17T12:05:41;28.80;92.90
21805;DHT22;11064;47.102;15.452;2023-08-17T12:08:08;28.70;92.30
21805;DHT22;11064;47.102;15.452;2023-08-17T12:10:34;29.00;92.00
21805;DHT22;11064;47.102;15.452;2023-08-17T12:13:01;29.50;91.70
21805;DHT22;11064;47.102;15.452;2023-08-17T12:15:33;29.40;89.90
21805;DHT22;11064;47.102;15.452;2023-08-17T12:18:03;29.50;91.50
21805;DHT22;11064;47.102;15.452;2023-08-17T12:20:31;29.60;88.30
21805;DHT22;11064;47.102;15.452;2023-08-17T12:22:58;30.70;89.20
21805;DHT22;11064;47.102;15.452;2023-08-17T12:25:25;31.10;84.80
21805;DHT22;11064;47.102;15.452;2023-08-17T12:27:51;31.10;83.40
21805;DHT22;11064;47.102;15.452;2023-08-17T12:30:26;30.50;85.30
21805;DHT22;11064;47.102;15.452;2023-08-17T12:32:52;30.20;88.40
21805;DHT22;11064;47.102;15.452;2023-08-17T12:35:18;30.30;86.70
21805;DHT22;11064;47.102;15.452;2023-08-17T12:37:47;30.30;87.60
21805;DHT22;11064;47.102;15.452;2023-08-17T12:40:13;29.90;86.90
21805;DHT22;11064;47.102;15.452;2023-08-17T12:42:39;29.70;85.80
21805;DHT22;11064;47.102;15.452;2023-08-17T12:45:06;29.20;90.60
21805;DHT22;11064;47.102;15.452;2023-08-17T12:47:31;29.10;89.80
21805;DHT22;11064;47.102;15.452;2023-08-17T12:49:57;29.10;88.90
21805;DHT22;11064;47.102;15.452;2023-08-17T12:52:23;28.50;87.50
21805;DHT22;11064;47.102;15.452;2023-08-17T12:54:49;28.00;90.00
21805;DHT22;11064;47.102;15.452;2023-08-17T12:57:15;27.80;91.90
21805;DHT22;11064;47.102;15.452;2023-08-17T12:59:41;27.80;91.40
21805;DHT22;11064;47.102;15.452;2023-08-17T13:02:07;27.70;90.50
21805;DHT22;11064;47.102;15.452;2023-08-17T13:04:32;27.20;93.60
21805;DHT22;11064;47.102;15.452;2023-08-17T13:06:58;27.40;93.80
21805;DHT22;11064;47.102;15.452;2023-08-17T13:09:24;27.40;93.10
21805;DHT22;11064;47.102;15.452;2023-08-17T13:11:50;27.50;91.40
21805;DHT22;11064;47.102;15.452;2023-08-17T13:14:16;27.10;90.40
21805;DHT22;11064;47.102;15.452;2023-08-17T13:16:42;27.10;91.70
21805;DHT22;11064;47.102;15.452;2023-08-17T13:19:08;27.10;91.50
21805;DHT22;11064;47.102;15.452;2023-08-17T13:21:34;27.00;91.70
21805;DHT22;11064;47.102;15.452;2023-08-17T13:24:00;27.00;90.20
21805;DHT22;11064;47.102;15.452;2023-08-17T13:26:26;26.80;90.80
21805;DHT22;11064;47.102;15.452;2023-08-17T13:28:51;26.90;92.10
21805;DHT22;11064;47.102;15.452;2023-08-17T13:31:17;27.20;93.10
21805;DHT22;11064;47.102;15.452;2023-08-17T13:33:43;27.90;92.10
21805;DHT22;11064;47.102;15.452;2023-08-17T13:36:09;28.40;91.60
21805;DHT22;11064;47.102;15.452;2023-08-17T13:38:34;28.50;84.70
21805;DHT22;11064;47.102;15.452;2023-08-17T13:41:00;28.90;86.00
21805;DHT22;11064;47.102;15.452;2023-08-17T13:43:26;29.30;85.90
21805;DHT22;11064;47.102;15.452;2023-08-17T13:45:52;29.10;86.20
21805;DHT22;11064;47.102;15.452;2023-08-17T13:48:18;29.50;85.40
21805;DHT22;11064;47.102;15.452;2023-08-17T13:50:44;30.50;85.00
21805;DHT22;11064;47.102;15.452;2023-08-17T13:53:10;30.30;84.60
21805;DHT22;11064;47.102;15.452;2023-08-17T13:55:36;30.50;81.80
21805;DHT22;11064;47.102;15.452;2023-08-17T13:58:02;30.80;79.80
21805;DHT22;11064;47.102;15.452;2023-08-17T14:00:28;30.30;79.60
21805;DHT22;11064;47.102;15.452;2023-08-17T14:02:54;30.30;81.90
21805;DHT22;11064;47.102;15.452;2023-08-17T14:05:20;29.50;81.80
21805;DHT22;11064;47.102;15.452;2023-08-17T14:07:47;28.90;85.30
21805;DHT22;11064;47.102;15.452;2023-08-17T14:10:14;28.40;90.00
21805;DHT22;11064;47.102;15.452;2023-08-17T14:12:40;28.00;90.90
21805;DHT22;11064;47.102;15.452;2023-08-17T14:15:06;27.70;89.30
21805;DHT22;11064;47.102;15.452;2023-08-17T14:17:32;27.60;89.80
21805;DHT22;11064;47.102;15.452;2023-08-17T14:19:58;27.00;90.90
21805;DHT22;11064;47.102;15.452;2023-08-17T14:22:25;27.10;92.80
21805;DHT22;11064;47.102;15.452;2023-08-17T14:24:51;27.00;91.80
21805;DHT22;11064;47.102;15.452;2023-08-17T14:27:16;26.70;93.20
21805;DHT22;11064;47.102;15.452;2023-08-17T14:29:42;26.80;93.20
21805;DHT22;11064;47.102;15.452;2023-08-17T14:32:08;26.70;95.10
21805;DHT22;11064;47.102;15.452;2023-08-17T14:34:34;26.60;92.50
21805;DHT22;11064;47.102;15.452;2023-08-17T14:37:00;26.50;93.00
21805;DHT22;11064;47.102;15.452;2023-08-17T14:39:25;26.50;94.00
21805;DHT22;11064;47.102;15.452;2023-08-17T14:41:51;26.30;93.60
21805;DHT22;11064;47.102;15.452;2023-08-17T14:44:18;26.20;93.90
21805;DHT22;11064;47.102;15.452;2023-08-17T14:46:44;26.10;93.50
21805;DHT22;11064;47.102;15.452;2023-08-17T14:49:10;26.20;94.70
21805;DHT22;11064;47.102;15.452;2023-08-17T14:51:39;26.40;95.30
21805;DHT22;11064;47.102;15.452;2023-08-17T14:54:09;26.60;95.30
21805;DHT22;11064;47.102;15.452;2023-08-17T14:56:35;26.60;94.20
21805;DHT22;11064;47.102;15.452;2023-08-17T14:59:01;26.80;94.00
21805;DHT22;11064;47.102;15.452;2023-08-17T15:01:28;26.80;94.70
21805;DHT22;11064;47.102;15.452;2023-08-17T15:03:55;27.00;97.00
21805;DHT22;11064;47.102;15.452;2023-08-17T15:06:22;26.90;95.80
21805;DHT22;11064;47.102;15.452;2023-08-17T15:08:52;26.30;97.50
21805;DHT22;11064;47.102;15.452;2023-08-17T15:11:18;26.10;96.40
21805;DHT22;11064;47.102;15.452;2023-08-17T15:13:44;25.80;96.70
21805;DHT22;11064;47.102;15.452;2023-08-17T15:16:10;25.50;98.20
21805;DHT22;11064;47.102;15.452;2023-08-17T15:18:37;25.30;99.50
21805;DHT22;11064;47.102;15.452;2023-08-17T15:21:03;25.30;99.90
21805;DHT22;11064;47.102;15.452;2023-08-17T15:23:28;25.40;99.90
21805;DHT22;11064;47.102;15.452;2023-08-17T15:25:54;25.40;99.90
21805;DHT22;11064;47.102;15.452;2023-08-17T15:28:20;25.50;99.90
21805;DHT22;11064;47.102;15.452;2023-08-17T15:30:59;25.80;99.90
21805;DHT22;11064;47.102;15.452;2023-08-17T15:33:27;26.10;99.90
21805;DHT22;11064;47.102;15.452;2023-08-17T15:35:53;26.30;99.90
21805;DHT22;11064;47.102;15.452;2023-08-17T15:38:18;26.40;99.90
21805;DHT22;11064;47.102;15.452;2023-08-17T15:40:44;26.40;99.90
21805;DHT22;11064;47.102;15.452;2023-08-17T15:43:10;26.30;99.90
21805;DHT22;11064;47.102;15.452;2023-08-17T15:45:36;26.40;99.90
21805;DHT22;11064;47.102;15.452;2023-08-17T15:48:02;26.30;99.90
21805;DHT22;11064;47.102;15.452;2023-08-17T15:50:29;26.40;99.90
21805;DHT22;11064;47.102;15.452;2023-08-17T15:52:55;26.30;99.90
21805;DHT22;11064;47.102;15.452;2023-08-17T15:55:21;26.20;99.90
21805;DHT22;11064;47.102;15.452;2023-08-17T15:57:47;26.30;99.90
21805;DHT22;11064;47.102;15.452;2023-08-17T16:00:13;26.30;99.90
21805;DHT22;11064;47.102;15.452;2023-08-17T16:02:39;26.40;99.90
21805;DHT22;11064;47.102;15.452;2023-08-17T16:05:06;26.50;99.90
21805;DHT22;11064;47.102;15.452;2023-08-17T16:07:32;26.60;99.90
21805;DHT22;11064;47.102;15.452;2023-08-17T16:09:59;26.70;98.90
21805;DHT22;11064;47.102;15.452;2023-08-17T16:12:24;26.40;98.90
21805;DHT22;11064;47.102;15.452;2023-08-17T16:14:50;25.80;99.80
21805;DHT22;11064;47.102;15.452;2023-08-17T16:17:16;25.40;99.90
21805;DHT22;11064;47.102;15.452;2023-08-17T16:19:42;25.10;99.90
21805;DHT22;11064;47.102;15.452;2023-08-17T16:22:08;24.90;99.90
21805;DHT22;11064;47.102;15.452;2023-08-17T16:24:34;24.40;99.90
21805;DHT22;11064;47.102;15.452;2023-08-17T16:27:00;24.10;99.90
21805;DHT22;11064;47.102;15.452;2023-08-17T16:29:26;24.00;99.90
21805;DHT22;11064;47.102;15.452;2023-08-17T16:32:01;23.80;99.90
21805;DHT22;11064;47.102;15.452;2023-08-17T16:34:30;23.70;99.90
21805;DHT22;11064;47.102;15.452;2023-08-17T16:36:57;23.70;99.90
21805;DHT22;11064;47.102;15.452;2023-08-17T16:39:24;23.70;99.90
21805;DHT22;11064;47.102;15.452;2023-08-17T16:41:51;23.70;99.90
21805;DHT22;11064;47.102;15.452;2023-08-17T16:44:18;23.60;99.90
21805;DHT22;11064;47.102;15.452;2023-08-17T16:46:44;23.60;99.90
21805;DHT22;11064;47.102;15.452;2023-08-17T16:49:10;23.60;99.90
21805;DHT22;11064;47.102;15.452;2023-08-17T16:51:37;23.70;99.90
21805;DHT22;11064;47.102;15.452;2023-08-17T16:54:03;23.70;99.90
21805;DHT22;11064;47.102;15.452;2023-08-17T16:56:29;23.70;99.90
21805;DHT22;11064;47.102;15.452;2023-08-17T16:58:55;23.70;99.90
21805;DHT22;11064;47.102;15.452;2023-08-17T17:01:21;23.50;99.90
21805;DHT22;11064;47.102;15.452;2023-08-17T17:03:47;23.60;99.90
21805;DHT22;11064;47.102;15.452;2023-08-17T17:06:13;23.60;99.90
21805;DHT22;11064;47.102;15.452;2023-08-17T17:08:40;23.70;99.90
21805;DHT22;11064;47.102;15.452;2023-08-17T17:11:06;23.80;99.90
21805;DHT22;11064;47.102;15.452;2023-08-17T17:13:34;23.50;99.90
21805;DHT22;11064;47.102;15.452;2023-08-17T17:16:01;23.50;99.90
21805;DHT22;11064;47.102;15.452;2023-08-17T17:18:27;23.50;99.90
21805;DHT22;11064;47.102;15.452;2023-08-17T17:20:53;23.40;99.90
21805;DHT22;11064;47.102;15.452;2023-08-17T17:23:19;23.30;99.90
21805;DHT22;11064;47.102;15.452;2023-08-17T17:25:46;23.30;99.90
21805;DHT22;11064;47.102;15.452;2023-08-17T17:28:12;23.20;99.90
21805;DHT22;11064;47.102;15.452;2023-08-17T17:30:38;23.20;99.90
21805;DHT22;11064;47.102;15.452;2023-08-17T17:33:04;23.20;99.90
21805;DHT22;11064;47.102;15.452;2023-08-17T17:35:31;23.20;99.90
21805;DHT22;11064;47.102;15.452;2023-08-17T17:37:57;23.10;99.90
21805;DHT22;11064;47.102;15.452;2023-08-17T17:40:23;23.10;99.90
21805;DHT22;11064;47.102;15.452;2023-08-17T17:42:49;23.00;99.90
21805;DHT22;11064;47.102;15.452;2023-08-17T17:45:18;23.00;99.90
21805;DHT22;11064;47.102;15.452;2023-08-17T17:47:44;23.00;99.90
21805;DHT22;11064;47.102;15.452;2023-08-17T17:50:10;22.90;99.90
21805;DHT22;11064;47.102;15.452;2023-08-17T17:52:37;22.80;99.90
21805;DHT22;11064;47.102;15.452;2023-08-17T17:55:03;22.60;99.90
21805;DHT22;11064;47.102;15.452;2023-08-17T17:57:29;22.50;99.90
21805;DHT22;11064;47.102;15.452;2023-08-17T17:59:55;22.40;99.90
21805;DHT22;11064;47.102;15.452;2023-08-17T18:02:26;22.30;99.90
21805;DHT22;11064;47.102;15.452;2023-08-17T18:04:52;22.30;99.90
21805;DHT22;11064;47.102;15.452;2023-08-17T18:07:18;22.20;99.90
21805;DHT22;11064;47.102;15.452;2023-08-17T18:09:45;22.10;99.90
21805;DHT22;11064;47.102;15.452;2023-08-17T18:12:11;22.10;99.90
21805;DHT22;11064;47.102;15.452;2023-08-17T18:14:37;22.00;99.90
21805;DHT22;11064;47.102;15.452;2023-08-17T18:17:03;21.90;99.90
21805;DHT22;11064;47.102;15.452;2023-08-17T18:19:30;21.80;99.90
21805;DHT22;11064;47.102;15.452;2023-08-17T18:21:56;21.70;99.90
21805;DHT22;11064;47.102;15.452;2023-08-17T18:24:23;21.60;99.90
21805;DHT22;11064;47.102;15.452;2023-08-17T18:26:50;21.60;99.90
21805;DHT22;11064;47.102;15.452;2023-08-17T18:29:16;21.50;99.90
21805;DHT22;11064;47.102;15.452;2023-08-17T18:31:42;21.40;99.90
21805;DHT22;11064;47.102;15.452;2023-08-17T18:34:09;21.30;99.90
21805;DHT22;11064;47.102;15.452;2023-08-17T18:36:35;21.30;99.90
21805;DHT22;11064;47.102;15.452;2023-08-17T18:39:02;21.30;99.90
21805;DHT22;11064;47.102;15.452;2023-08-17T18:41:28;21.30;99.90
21805;DHT22;11064;47.102;15.452;2023-08-17T18:43:56;21.20;99.90
21805;DHT22;11064;47.102;15.452;2023-08-17T18:46:23;21.20;99.90
21805;DHT22;11064;47.102;15.452;2023-08-17T18:48:50;21.10;99.90
21805;DHT22;11064;47.102;15.452;2023-08-17T18:51:17;21.00;99.90
21805;DHT22;11064;47.102;15.452;2023-08-17T18:53:44;20.90;99.90
21805;DHT22;11064;47.102;15.452;2023-08-17T18:56:10;20.70;99.90
21805;DHT22;11064;47.102;15.452;2023-08-17T18:58:37;20.60;99.90
21805;DHT22;11064;47.102;15.452;2023-08-17T19:01:04;20.50;99.90
21805;DHT22;11064;47.102;15.452;2023-08-17T19:03:31;20.40;99.90
21805;DHT22;11064;47.102;15.452;2023-08-17T19:05:58;20.30;99.90
21805;DHT22;11064;47.102;15.452;2023-08-17T19:08:24;20.30;99.90
21805;DHT22;11064;47.102;15.452;2023-08-17T19:10:50;20.20;99.90
21805;DHT22;11064;47.102;15.452;2023-08-17T19:13:16;20.20;99.90
21805;DHT22;11064;47.102;15.452;2023-08-17T19:15:43;20.20;99.90